createdAt,value
2018-12-17T00:00:31.449Z,16.10
2018-12-17T00:02:58.677Z,16.10
2018-12-17T00:05:25.898Z,16.10
2018-12-17T00:07:53.112Z,16.00
2018-12-17T00:10:21.070Z,16.10
2018-12-17T00:12:49.220Z,16.10
2018-12-17T00:15:16.437Z,16.10
2018-12-17T00:17:43.643Z,16.10
2018-12-17T00:20:10.860Z,16.00
2018-12-17T00:22:38.131Z,16.00
2018-12-17T00:25:05.352Z,16.00
2018-12-17T00:27:32.573Z,16.00
2018-12-17T00:29:59.780Z,16.00
2018-12-17T00:32:26.999Z,16.00
2018-12-17T00:34:54.211Z,16.00
2018-12-17T00:37:21.432Z,16.00
2018-12-17T00:39:48.686Z,16.00
2018-12-17T00:42:16.821Z,16.00
2018-12-17T00:44:44.829Z,16.00
2018-12-17T00:47:12.039Z,16.00
2018-12-17T00:49:40.212Z,16.10
2018-12-17T00:52:08.195Z,16.20
2018-12-17T00:54:35.482Z,16.20
2018-12-17T00:57:02.687Z,16.20
2018-12-17T00:59:29.900Z,16.20
2018-12-17T01:01:57.992Z,16.20
2018-12-17T01:04:25.206Z,16.20
2018-12-17T01:06:52.423Z,16.20
2018-12-17T01:09:20.438Z,16.20
2018-12-17T01:11:47.903Z,16.20
2018-12-17T01:14:15.937Z,16.20
2018-12-17T01:16:43.179Z,16.10
2018-12-17T01:19:11.382Z,16.10
2018-12-17T01:21:39.666Z,16.10
2018-12-17T01:24:06.862Z,16.10
2018-12-17T01:26:34.117Z,16.10
2018-12-17T01:29:02.146Z,16.10
2018-12-17T01:31:29.392Z,16.10
2018-12-17T01:33:57.550Z,16.10
2018-12-17T01:36:24.815Z,16.10
2018-12-17T01:38:52.839Z,16.10
2018-12-17T01:41:20.994Z,16.10
2018-12-17T01:43:49.157Z,16.10
2018-12-17T01:46:17.172Z,16.10
2018-12-17T01:48:44.411Z,16.10
2018-12-17T01:51:11.620Z,16.00
2018-12-17T01:53:39.812Z,16.10
2018-12-17T01:56:07.960Z,16.10
2018-12-17T01:58:35.221Z,16.10
2018-12-17T02:01:03.331Z,16.00
2018-12-17T02:03:32.057Z,16.00
2018-12-17T02:06:06.206Z,16.00
2018-12-17T02:08:34.496Z,16.00
2018-12-17T02:11:02.687Z,16.00
2018-12-17T02:13:29.908Z,16.00
2018-12-17T02:15:57.126Z,16.00
2018-12-17T02:18:24.383Z,16.00
2018-12-17T02:20:51.633Z,16.00
2018-12-17T02:23:18.845Z,16.00
2018-12-17T02:25:46.095Z,16.00
2018-12-17T02:28:14.239Z,16.00
2018-12-17T02:30:42.437Z,16.00
2018-12-17T02:33:09.670Z,16.00
2018-12-17T02:35:36.937Z,16.00
2018-12-17T02:38:05.176Z,16.00
2018-12-17T02:40:33.230Z,16.00
2018-12-17T02:43:01.302Z,16.00
2018-12-17T02:45:28.560Z,16.00
2018-12-17T02:47:56.657Z,16.00
2018-12-17T02:50:24.707Z,16.00
2018-12-17T02:52:52.714Z,16.10
2018-12-17T02:55:19.962Z,16.20
2018-12-17T02:57:47.182Z,16.20
2018-12-17T03:00:15.374Z,16.20
2018-12-17T03:02:43.433Z,16.20
2018-12-17T03:05:10.650Z,16.20
2018-12-17T03:07:37.860Z,16.20
2018-12-17T03:10:05.542Z,16.20
2018-12-17T03:12:32.838Z,16.20
2018-12-17T03:15:01.421Z,16.20
2018-12-17T03:17:28.659Z,16.20
2018-12-17T03:19:55.871Z,16.20
2018-12-17T03:22:23.089Z,16.10
2018-12-17T03:24:50.294Z,16.20
2018-12-17T03:27:17.555Z,16.20
2018-12-17T03:29:44.790Z,16.20
2018-12-17T03:32:12.001Z,16.20
2018-12-17T03:34:39.230Z,16.20
2018-12-17T03:37:06.446Z,16.10
2018-12-17T03:39:33.661Z,16.10
2018-12-17T03:42:01.682Z,16.10
2018-12-17T03:44:28.900Z,16.10
2018-12-17T03:46:56.152Z,16.10
2018-12-17T03:49:23.369Z,16.10
2018-12-17T03:51:51.614Z,16.10
2018-12-17T03:54:19.614Z,16.10
2018-12-17T03:56:47.748Z,16.10
2018-12-17T03:59:14.963Z,16.10
2018-12-17T04:01:42.178Z,16.10
2018-12-17T04:04:09.429Z,16.10
2018-12-17T04:06:36.634Z,16.10
2018-12-17T04:09:04.932Z,16.10
2018-12-17T04:11:32.161Z,16.10
2018-12-17T04:14:00.679Z,16.10
2018-12-17T04:16:28.718Z,16.10
2018-12-17T04:18:55.939Z,16.10
2018-12-17T04:21:23.960Z,16.10
2018-12-17T04:23:52.131Z,16.00
2018-12-17T04:26:20.284Z,16.10
2018-12-17T04:28:47.508Z,16.10
2018-12-17T04:31:15.652Z,16.10
2018-12-17T04:33:43.857Z,16.10
2018-12-17T04:36:12.036Z,16.10
2018-12-17T04:38:40.067Z,16.00
2018-12-17T04:41:08.269Z,16.00
2018-12-17T04:43:35.483Z,16.10
2018-12-17T04:46:03.611Z,16.10
2018-12-17T04:48:32.859Z,16.00
2018-12-17T04:51:00.951Z,16.00
2018-12-17T04:53:28.182Z,16.00
2018-12-17T04:55:55.391Z,16.10
2018-12-17T04:58:22.612Z,16.10
2018-12-17T05:00:50.646Z,16.20
2018-12-17T05:03:18.817Z,16.20
2018-12-17T05:05:46.192Z,16.30
2018-12-17T05:08:13.448Z,16.30
2018-12-17T05:10:41.568Z,16.30
2018-12-17T05:13:09.746Z,16.30
2018-12-17T05:15:37.753Z,16.30
2018-12-17T05:18:04.967Z,16.30
2018-12-17T05:20:33.147Z,16.30
2018-12-17T05:23:00.393Z,16.30
2018-12-17T05:25:28.409Z,16.20
2018-12-17T05:27:55.676Z,16.20
2018-12-17T05:30:22.901Z,16.20
2018-12-17T05:32:50.152Z,16.20
2018-12-17T05:35:17.377Z,16.20
2018-12-17T05:37:44.626Z,16.20
2018-12-17T05:40:12.640Z,16.20
2018-12-17T05:42:39.926Z,16.20
2018-12-17T05:45:08.060Z,16.20
2018-12-17T05:47:36.075Z,16.20
2018-12-17T05:50:04.814Z,16.20
2018-12-17T05:52:32.075Z,16.20
2018-12-17T05:55:01.294Z,16.10
2018-12-17T05:57:28.660Z,16.10
2018-12-17T05:59:55.872Z,16.10
2018-12-17T06:02:23.894Z,16.10
2018-12-17T06:04:51.108Z,16.10
2018-12-17T06:07:18.322Z,16.10
2018-12-17T06:09:45.542Z,16.10
2018-12-17T06:12:12.764Z,16.10
2018-12-17T06:14:39.975Z,16.10
2018-12-17T06:17:07.188Z,16.10
2018-12-17T06:19:35.357Z,16.10
2018-12-17T06:22:02.574Z,16.10
2018-12-17T06:24:31.312Z,16.20
2018-12-17T06:26:59.406Z,16.20
2018-12-17T06:29:26.615Z,16.30
2018-12-17T06:31:53.862Z,16.30
2018-12-17T06:34:21.138Z,16.30
2018-12-17T06:36:48.412Z,16.30
2018-12-17T06:39:15.653Z,16.30
2018-12-17T06:41:43.816Z,16.30
2018-12-17T06:44:11.977Z,16.30
2018-12-17T06:46:40.391Z,16.30
2018-12-17T06:49:07.605Z,16.20
2018-12-17T06:51:35.279Z,16.20
2018-12-17T06:54:03.299Z,16.20
2018-12-17T06:56:32.154Z,16.20
2018-12-17T06:59:00.336Z,16.20
2018-12-17T07:01:28.566Z,16.20
2018-12-17T07:03:56.916Z,16.20
2018-12-17T07:06:24.147Z,16.20
2018-12-17T07:08:51.414Z,16.20
2018-12-17T07:11:19.555Z,16.20
2018-12-17T07:13:47.721Z,16.20
2018-12-17T07:16:14.934Z,16.20
2018-12-17T07:18:43.130Z,16.20
2018-12-17T07:21:11.156Z,16.20
2018-12-17T07:23:38.415Z,16.20
2018-12-17T07:26:06.539Z,16.20
2018-12-17T07:28:33.800Z,16.20
2018-12-17T07:31:01.941Z,16.20
2018-12-17T07:33:29.200Z,16.30
2018-12-17T07:35:57.215Z,16.30
2018-12-17T07:38:25.406Z,16.40
2018-12-17T07:40:52.659Z,16.40
2018-12-17T07:43:19.908Z,16.40
2018-12-17T07:45:47.127Z,16.40
2018-12-17T07:48:14.336Z,16.40
2018-12-17T07:50:41.553Z,16.40
2018-12-17T07:53:08.775Z,16.30
2018-12-17T07:55:36.001Z,16.30
2018-12-17T07:58:04.010Z,16.30
2018-12-17T08:00:31.992Z,16.30
2018-12-17T08:02:59.214Z,16.30
2018-12-17T08:05:26.428Z,16.30
2018-12-17T08:07:53.714Z,16.30
2018-12-17T08:10:21.008Z,16.30
2018-12-17T08:12:48.277Z,16.30
2018-12-17T08:15:15.498Z,16.30
2018-12-17T08:17:42.711Z,16.30
2018-12-17T08:20:09.927Z,16.30
2018-12-17T08:22:37.220Z,16.20
2018-12-17T08:25:04.442Z,16.20
2018-12-17T08:27:32.292Z,16.20
2018-12-17T08:30:03.914Z,16.20
2018-12-17T08:32:28.822Z,16.20
2018-12-17T08:34:56.035Z,16.20
2018-12-17T08:37:23.257Z,16.20
2018-12-17T08:39:50.478Z,16.20
2018-12-17T08:42:17.741Z,16.20
2018-12-17T08:44:44.966Z,16.20
2018-12-17T08:47:12.171Z,16.20
2018-12-17T08:49:39.379Z,16.20
2018-12-17T08:52:06.624Z,16.20
2018-12-17T08:54:33.897Z,16.20
2018-12-17T08:57:01.710Z,16.20
2018-12-17T08:59:28.934Z,16.20
2018-12-17T09:01:56.158Z,16.20
2018-12-17T09:04:23.374Z,16.20
2018-12-17T09:06:50.594Z,16.20
2018-12-17T09:09:17.815Z,16.20
2018-12-17T09:11:45.027Z,16.20
2018-12-17T09:14:12.242Z,16.20
2018-12-17T09:16:39.674Z,16.20
2018-12-17T09:19:06.884Z,16.20
2018-12-17T09:21:34.103Z,16.20
2018-12-17T09:24:01.380Z,16.20
2018-12-17T09:26:28.597Z,16.10
2018-12-17T09:28:55.851Z,16.20
2018-12-17T09:31:23.066Z,16.20
2018-12-17T09:33:51.071Z,16.30
2018-12-17T09:36:18.292Z,16.30
2018-12-17T09:38:46.293Z,16.40
2018-12-17T09:41:14.474Z,16.40
2018-12-17T09:43:42.527Z,16.40
2018-12-17T09:46:10.703Z,16.40
2018-12-17T09:48:37.932Z,16.40
2018-12-17T09:51:06.122Z,16.40
2018-12-17T09:53:34.128Z,16.40
2018-12-17T09:56:01.393Z,16.40
2018-12-17T09:58:29.539Z,16.30
2018-12-17T10:00:57.600Z,16.30
2018-12-17T10:03:25.690Z,16.30
2018-12-17T10:05:53.717Z,16.30
2018-12-17T10:08:20.976Z,16.30
2018-12-17T10:10:49.146Z,16.30
2018-12-17T10:13:17.327Z,16.30
2018-12-17T10:15:45.473Z,16.30
2018-12-17T10:18:12.684Z,16.30
2018-12-17T10:20:40.694Z,16.20
2018-12-17T10:23:08.704Z,16.20
2018-12-17T10:25:36.921Z,16.20
2018-12-17T10:28:04.437Z,16.20
2018-12-17T10:30:32.935Z,16.30
2018-12-17T10:33:00.963Z,16.40
2018-12-17T10:35:29.120Z,16.40
2018-12-17T10:37:56.338Z,16.30
2018-12-17T10:40:23.554Z,16.20
2018-12-17T10:42:50.760Z,16.20
2018-12-17T10:45:18.898Z,16.20
2018-12-17T10:47:46.157Z,16.30
2018-12-17T10:50:13.430Z,16.30
2018-12-17T10:52:41.472Z,16.30
2018-12-17T10:55:09.513Z,16.30
2018-12-17T10:57:36.864Z,16.30
2018-12-17T11:00:05.975Z,16.30
2018-12-17T11:02:33.239Z,16.30
2018-12-17T11:05:01.830Z,16.20
2018-12-17T11:07:29.089Z,16.20
2018-12-17T11:09:57.266Z,16.20
2018-12-17T11:12:24.487Z,16.20
2018-12-17T11:14:51.736Z,16.00
2018-12-17T11:17:18.947Z,15.80
2018-12-17T11:19:47.083Z,15.70
2018-12-17T11:22:14.298Z,15.60
2018-12-17T11:24:41.584Z,15.50
2018-12-17T11:27:08.767Z,15.50
2018-12-17T11:29:36.933Z,15.50
2018-12-17T11:32:04.156Z,15.50
2018-12-17T11:34:32.318Z,15.50
2018-12-17T11:36:59.539Z,15.40
2018-12-17T11:39:27.713Z,15.60
2018-12-17T11:42:03.338Z,15.70
2018-12-17T11:44:31.733Z,15.80
2018-12-17T11:46:58.991Z,15.90
2018-12-17T11:49:27.115Z,16.00
2018-12-17T11:51:55.244Z,16.00
2018-12-17T11:54:22.451Z,16.00
2018-12-17T11:57:07.520Z,16.10
2018-12-17T11:59:34.723Z,16.10
2018-12-17T12:02:02.788Z,16.10
2018-12-17T12:04:31.974Z,16.10
2018-12-17T12:06:59.199Z,16.10
2018-12-17T12:09:27.210Z,16.10
2018-12-17T12:11:54.411Z,16.10
2018-12-17T12:14:21.624Z,16.10
2018-12-17T12:16:48.838Z,16.20
2018-12-17T12:19:16.931Z,16.10
2018-12-17T12:21:44.148Z,16.10
2018-12-17T12:24:12.162Z,16.10
2018-12-17T12:26:39.361Z,16.10
2018-12-17T12:29:06.566Z,16.20
2018-12-17T12:31:34.574Z,16.10
2018-12-17T12:34:02.515Z,16.10
2018-12-17T12:36:29.719Z,16.10
2018-12-17T12:38:56.934Z,16.10
2018-12-17T12:41:24.154Z,16.20
2018-12-17T12:43:51.372Z,16.20
2018-12-17T12:46:18.591Z,16.10
2018-12-17T12:48:45.843Z,16.20
2018-12-17T12:51:13.064Z,16.20
2018-12-17T12:53:40.265Z,16.20
2018-12-17T12:56:07.476Z,16.20
2018-12-17T12:58:34.693Z,16.20
2018-12-17T13:01:07.638Z,16.20
2018-12-17T13:03:31.444Z,16.10
2018-12-17T13:05:59.570Z,16.20
2018-12-17T13:08:26.768Z,16.10
2018-12-17T13:10:54.800Z,16.10
2018-12-17T13:13:22.923Z,16.10
2018-12-17T13:15:51.116Z,16.10
2018-12-17T13:18:19.133Z,16.20
2018-12-17T13:20:46.371Z,16.20
2018-12-17T13:23:13.693Z,16.10
2018-12-17T13:25:42.891Z,16.10
2018-12-17T13:28:10.112Z,16.10
2018-12-17T13:30:38.118Z,16.20
2018-12-17T13:33:05.393Z,16.20
2018-12-17T13:35:33.533Z,16.10
2018-12-17T13:38:01.612Z,16.20
2018-12-17T13:40:28.826Z,16.20
2018-12-17T13:42:56.035Z,16.10
2018-12-17T13:45:23.416Z,16.20
2018-12-17T13:47:51.589Z,16.20
2018-12-17T13:50:38.337Z,16.20
2018-12-17T13:53:12.034Z,16.20
2018-12-17T13:55:40.055Z,16.20
2018-12-17T13:58:08.257Z,16.10
2018-12-17T14:00:36.405Z,16.10
2018-12-17T14:03:04.588Z,16.10
2018-12-17T14:05:32.374Z,16.10
2018-12-17T14:07:59.612Z,16.20
2018-12-17T14:10:33.353Z,16.10
2018-12-17T14:13:01.684Z,16.10
2018-12-17T14:15:31.649Z,16.10
2018-12-17T14:17:58.861Z,16.10
2018-12-17T14:20:31.831Z,16.20
2018-12-17T14:22:59.045Z,16.20
2018-12-17T14:25:26.266Z,16.10
2018-12-17T14:27:53.526Z,16.20
2018-12-17T14:30:21.534Z,16.10
2018-12-17T14:32:49.753Z,16.10
2018-12-17T14:35:17.811Z,16.20
2018-12-17T14:37:51.557Z,16.20
2018-12-17T14:40:18.773Z,16.20
2018-12-17T14:42:46.779Z,16.20
2018-12-17T14:45:13.991Z,16.20
2018-12-17T14:47:41.209Z,16.20
2018-12-17T14:50:08.422Z,16.20
2018-12-17T14:52:36.440Z,16.20
2018-12-17T14:55:05.047Z,16.20
2018-12-17T14:57:33.194Z,16.20
2018-12-17T15:00:01.992Z,16.20
2018-12-17T15:02:29.211Z,16.20
2018-12-17T15:04:56.465Z,16.20
2018-12-17T15:07:23.710Z,16.20
2018-12-17T15:09:51.725Z,16.20
2018-12-17T15:12:18.934Z,16.20
2018-12-17T15:14:46.210Z,16.20
2018-12-17T15:17:13.605Z,16.20
2018-12-17T15:19:40.824Z,16.20
2018-12-17T15:22:08.985Z,16.20
2018-12-17T15:24:40.330Z,16.20
2018-12-17T15:27:06.426Z,16.20
2018-12-17T15:29:33.680Z,16.20
2018-12-17T15:32:01.611Z,16.20
2018-12-17T15:34:28.837Z,16.20
2018-12-17T15:36:56.043Z,16.20
2018-12-17T15:39:24.044Z,16.20
2018-12-17T15:41:51.259Z,16.20
2018-12-17T15:44:19.266Z,16.20
2018-12-17T15:46:46.492Z,16.20
2018-12-17T15:49:13.711Z,16.20
2018-12-17T15:51:40.924Z,16.20
2018-12-17T15:54:08.124Z,16.10
2018-12-17T15:56:36.271Z,16.10
2018-12-17T15:59:04.449Z,16.20
2018-12-17T16:01:32.591Z,16.20
2018-12-17T16:03:59.812Z,16.20
2018-12-17T16:06:27.015Z,16.20
2018-12-17T16:08:54.228Z,16.20
2018-12-17T16:11:21.479Z,16.20
2018-12-17T16:13:48.696Z,16.20
2018-12-17T16:16:15.919Z,16.20
2018-12-17T16:18:43.137Z,16.20
2018-12-17T16:21:11.243Z,16.20
2018-12-17T16:23:38.433Z,16.20
2018-12-17T16:26:05.650Z,16.20
2018-12-17T16:28:32.861Z,16.20
2018-12-17T16:31:00.709Z,16.20
2018-12-17T16:33:30.063Z,16.20
2018-12-17T16:35:57.339Z,16.20
2018-12-17T16:38:24.551Z,16.20
2018-12-17T16:40:51.786Z,16.10
2018-12-17T16:43:19.076Z,15.90
2018-12-17T16:45:46.299Z,15.80
2018-12-17T16:48:13.524Z,15.80
2018-12-17T16:50:40.730Z,16.00
2018-12-17T16:53:07.943Z,16.00
2018-12-17T16:55:35.153Z,16.10
2018-12-17T16:58:03.247Z,16.10
2018-12-17T17:00:31.148Z,16.10
2018-12-17T17:02:58.368Z,16.10
2018-12-17T17:05:25.585Z,16.20
2018-12-17T17:07:52.802Z,16.20
2018-12-17T17:10:20.005Z,16.10
2018-12-17T17:12:47.439Z,16.10
2018-12-17T17:15:14.640Z,16.20
2018-12-17T17:17:41.899Z,16.20
2018-12-17T17:20:09.679Z,16.20
2018-12-17T17:22:37.060Z,16.20
2018-12-17T17:25:04.893Z,16.20
2018-12-17T17:27:32.111Z,16.20
2018-12-17T17:29:59.347Z,16.20
2018-12-17T17:32:26.572Z,16.20
2018-12-17T17:34:53.796Z,16.10
2018-12-17T17:37:21.073Z,16.10
2018-12-17T17:39:48.294Z,16.10
2018-12-17T17:42:15.520Z,16.10
2018-12-17T17:44:42.731Z,16.10
2018-12-17T17:47:10.025Z,16.10
2018-12-17T17:49:37.394Z,16.10
2018-12-17T17:52:04.606Z,16.10
2018-12-17T17:54:32.781Z,16.10
2018-12-17T17:57:01.410Z,16.10
2018-12-17T17:59:28.629Z,16.10
2018-12-17T18:01:55.855Z,16.10
2018-12-17T18:04:23.073Z,16.10
2018-12-17T18:06:50.293Z,16.10
2018-12-17T18:09:17.502Z,16.10
2018-12-17T18:11:44.723Z,16.10
2018-12-17T18:14:12.758Z,16.10
2018-12-17T18:16:40.894Z,16.10
2018-12-17T18:19:08.136Z,16.20
2018-12-17T18:21:35.374Z,16.20
2018-12-17T18:24:02.599Z,16.20
2018-12-17T18:26:31.130Z,16.20
2018-12-17T18:28:58.418Z,16.10
2018-12-17T18:31:26.592Z,16.10
2018-12-17T18:33:53.780Z,16.10
2018-12-17T18:36:20.987Z,16.10
2018-12-17T18:38:48.256Z,15.90
2018-12-17T18:41:15.493Z,15.80
2018-12-17T18:43:42.756Z,15.90
2018-12-17T18:46:10.789Z,16.00
2018-12-17T18:48:38.007Z,16.00
2018-12-17T18:51:06.023Z,16.00
2018-12-17T18:53:34.164Z,16.00
2018-12-17T18:56:02.223Z,16.10
2018-12-17T18:58:29.442Z,16.10
2018-12-17T19:00:56.689Z,16.10
2018-12-17T19:03:24.817Z,16.10
2018-12-17T19:05:52.080Z,16.10
2018-12-17T19:08:19.314Z,16.20
2018-12-17T19:10:50.430Z,16.10
2018-12-17T19:13:17.700Z,16.10
2018-12-17T19:15:44.902Z,16.10
2018-12-17T19:18:12.165Z,16.10
2018-12-17T19:20:40.294Z,16.10
2018-12-17T19:23:07.547Z,16.20
2018-12-17T19:25:37.581Z,16.10
2018-12-17T19:28:04.825Z,16.20
2018-12-17T19:30:32.044Z,16.20
2018-12-17T19:33:00.898Z,16.20
2018-12-17T19:35:28.121Z,16.20
2018-12-17T19:37:55.338Z,16.20
2018-12-17T19:40:22.551Z,16.20
2018-12-17T19:42:49.765Z,16.20
2018-12-17T19:45:17.075Z,16.20
2018-12-17T19:47:45.412Z,16.20
2018-12-17T19:50:13.598Z,16.20
2018-12-17T19:52:40.818Z,16.20
2018-12-17T19:55:08.140Z,16.20
2018-12-17T19:57:35.413Z,16.20
2018-12-17T20:00:05.568Z,16.20
2018-12-17T20:02:33.755Z,16.20
2018-12-17T20:05:02.013Z,16.20
2018-12-17T20:07:31.022Z,16.20
2018-12-17T20:09:59.127Z,16.20
2018-12-17T20:12:27.292Z,16.20
2018-12-17T20:14:54.578Z,16.20
2018-12-17T20:17:21.799Z,16.20
2018-12-17T20:19:49.026Z,16.20
2018-12-17T20:22:16.250Z,16.20
2018-12-17T20:24:43.508Z,16.20
2018-12-17T20:27:10.726Z,16.10
2018-12-17T20:29:37.981Z,16.10
2018-12-17T20:32:05.862Z,16.10
2018-12-17T20:34:33.088Z,16.20
2018-12-17T20:37:00.526Z,16.20
2018-12-17T20:39:28.760Z,16.20
2018-12-17T20:41:56.043Z,16.20
2018-12-17T20:44:24.171Z,16.10
2018-12-17T20:46:51.426Z,16.20
2018-12-17T20:49:18.645Z,16.20
2018-12-17T20:51:45.854Z,16.20
2018-12-17T20:54:13.974Z,16.10
2018-12-17T20:56:41.990Z,16.10
2018-12-17T20:59:09.247Z,16.10
2018-12-17T21:01:36.465Z,16.20
2018-12-17T21:04:04.390Z,16.10
2018-12-17T21:06:32.549Z,16.10
2018-12-17T21:08:59.802Z,16.10
2018-12-17T21:11:26.998Z,16.20
2018-12-17T21:13:55.061Z,16.20
2018-12-17T21:16:22.283Z,16.20
2018-12-17T21:18:49.536Z,16.10
2018-12-17T21:21:16.746Z,16.10
2018-12-17T21:23:43.973Z,16.10
2018-12-17T21:26:11.196Z,16.10
2018-12-17T21:28:38.452Z,16.10
2018-12-17T21:31:05.706Z,16.10
2018-12-17T21:33:32.910Z,16.10
2018-12-17T21:36:01.391Z,16.10
2018-12-17T21:38:29.385Z,16.10
2018-12-17T21:40:56.647Z,16.10
2018-12-17T21:43:24.660Z,16.10
2018-12-17T21:45:52.696Z,16.10
2018-12-17T21:48:19.912Z,16.10
2018-12-17T21:50:47.183Z,16.10
2018-12-17T21:53:14.460Z,16.10
2018-12-17T21:55:41.672Z,16.10
2018-12-17T21:58:09.842Z,16.00
2018-12-17T22:00:37.052Z,16.00
2018-12-17T22:03:04.273Z,16.00
2018-12-17T22:05:32.403Z,16.00
2018-12-17T22:07:59.676Z,16.00
2018-12-17T22:10:28.875Z,16.00
2018-12-17T22:12:56.082Z,16.10
2018-12-17T22:15:23.298Z,16.10
2018-12-17T22:17:50.509Z,16.10
2018-12-17T22:20:17.799Z,16.00
2018-12-17T22:22:45.846Z,16.00
2018-12-17T22:25:13.064Z,16.10
2018-12-17T22:27:41.236Z,16.10
2018-12-17T22:30:08.455Z,16.10
2018-12-17T22:32:36.459Z,16.10
2018-12-17T22:35:04.063Z,16.10
2018-12-17T22:37:31.275Z,16.10
2018-12-17T22:39:59.280Z,16.10
2018-12-17T22:42:27.419Z,16.10
2018-12-17T22:44:54.679Z,16.10
2018-12-17T22:47:22.045Z,16.10
2018-12-17T22:49:49.263Z,16.10
2018-12-17T22:52:16.473Z,16.10
2018-12-17T22:54:44.474Z,16.10
2018-12-17T22:57:12.687Z,16.10
2018-12-17T22:59:39.898Z,16.10
2018-12-17T23:02:07.083Z,16.10
2018-12-17T23:04:35.167Z,16.10
2018-12-17T23:07:03.189Z,16.00
2018-12-17T23:09:36.371Z,16.10
2018-12-17T23:12:09.418Z,16.10
2018-12-17T23:14:42.631Z,16.10
2018-12-17T23:17:15.672Z,16.10
2018-12-17T23:19:42.970Z,16.10
2018-12-17T23:22:10.674Z,16.10
2018-12-17T23:24:37.949Z,16.10
2018-12-17T23:27:05.643Z,16.10
2018-12-17T23:29:33.908Z,16.10
2018-12-17T23:32:01.766Z,16.10
2018-12-17T23:34:28.989Z,16.10
2018-12-17T23:36:57.133Z,16.10
2018-12-17T23:39:24.335Z,16.00
2018-12-17T23:41:51.550Z,16.10
2018-12-17T23:44:19.582Z,16.10
2018-12-17T23:46:46.796Z,16.10
2018-12-17T23:49:14.969Z,16.10
2018-12-17T23:51:43.127Z,16.00
2018-12-17T23:54:11.308Z,16.00
2018-12-17T23:56:38.510Z,16.00
2018-12-17T23:59:06.532Z,16.00
